sensor_id;sensor_type;location;lat;lon;timestamp;pressure;altitude;pressure_sealevel;temperature;humidity
33697;BME280;20031;43.416;23.232;2023-08-30T00:00:17;98952.09;;;21.66;82.25
33697;BME280;20031;43.416;23.232;2023-08-30T00:02:44;98973.09;;;21.78;82.70
33697;BME280;20031;43.416;23.232;2023-08-30T00:05:10;98995.34;;;21.77;82.40
33697;BME280;20031;43.416;23.232;2023-08-30T00:07:35;99016.03;;;21.75;82.26
33697;BME280;20031;43.416;23.232;2023-08-30T00:10:01;99027.16;;;21.72;82.57
33697;BME280;20031;43.416;23.232;2023-08-30T00:12:27;99054.00;;;21.80;83.07
33697;BME280;20031;43.416;23.232;2023-08-30T00:14:53;99060.09;;;21.81;83.24
33697;BME280;20031;43.416;23.232;2023-08-30T00:17:18;99008.16;;;21.85;82.84
33697;BME280;20031;43.416;23.232;2023-08-30T00:19:45;98937.00;;;21.72;82.50
33697;BME280;20031;43.416;23.232;2023-08-30T00:22:10;98927.91;;;21.53;82.53
33697;BME280;20031;43.416;23.232;2023-08-30T00:24:37;98939.94;;;21.39;82.65
33697;BME280;20031;43.416;23.232;2023-08-30T00:27:03;98975.94;;;21.35;83.21
33697;BME280;20031;43.416;23.232;2023-08-30T00:29:28;98978.66;;;21.40;83.97
33697;BME280;20031;43.416;23.232;2023-08-30T00:31:54;98977.63;;;21.46;84.32
33697;BME280;20031;43.416;23.232;2023-08-30T00:34:20;98976.91;;;21.51;84.51
33697;BME280;20031;43.416;23.232;2023-08-30T00:36:45;98955.13;;;21.49;84.95
33697;BME280;20031;43.416;23.232;2023-08-30T00:39:11;98921.97;;;21.46;84.77
33697;BME280;20031;43.416;23.232;2023-08-30T00:41:36;98874.31;;;21.51;84.58
33697;BME280;20031;43.416;23.232;2023-08-30T00:44:02;98875.84;;;21.42;84.32
33697;BME280;20031;43.416;23.232;2023-08-30T00:46:28;98901.56;;;21.42;84.71
33697;BME280;20031;43.416;23.232;2023-08-30T00:48:54;98931.44;;;21.37;85.38
33697;BME280;20031;43.416;23.232;2023-08-30T00:51:20;98927.16;;;21.31;85.81
33697;BME280;20031;43.416;23.232;2023-08-30T00:53:46;98919.97;;;21.22;85.85
33697;BME280;20031;43.416;23.232;2023-08-30T00:56:12;98920.13;;;21.10;85.92
33697;BME280;20031;43.416;23.232;2023-08-30T00:58:39;98935.19;;;21.05;87.05
33697;BME280;20031;43.416;23.232;2023-08-30T01:01:04;98937.66;;;21.16;87.56
33697;BME280;20031;43.416;23.232;2023-08-30T01:03:33;98946.19;;;21.23;87.29
33697;BME280;20031;43.416;23.232;2023-08-30T01:05:59;98980.63;;;21.23;87.46
33697;BME280;20031;43.416;23.232;2023-08-30T01:08:25;99024.06;;;21.22;87.35
33697;BME280;20031;43.416;23.232;2023-08-30T01:14:09;99024.16;;;21.06;86.41
33697;BME280;20031;43.416;23.232;2023-08-30T01:16:35;99001.97;;;20.86;85.77
33697;BME280;20031;43.416;23.232;2023-08-30T01:24:38;98987.78;;;20.70;86.56
33697;BME280;20031;43.416;23.232;2023-08-30T01:27:12;99001.25;;;20.69;86.46
33697;BME280;20031;43.416;23.232;2023-08-30T01:29:39;99008.31;;;20.63;86.17
33697;BME280;20031;43.416;23.232;2023-08-30T01:32:08;99006.72;;;20.62;86.81
33697;BME280;20031;43.416;23.232;2023-08-30T01:34:34;99008.69;;;20.72;86.86
33697;BME280;20031;43.416;23.232;2023-08-30T01:37:01;99016.25;;;20.85;86.92
33697;BME280;20031;43.416;23.232;2023-08-30T01:39:29;99029.56;;;20.90;86.73
33697;BME280;20031;43.416;23.232;2023-08-30T01:41:55;99027.44;;;20.92;86.18
33697;BME280;20031;43.416;23.232;2023-08-30T01:44:28;99035.34;;;20.87;86.72
33697;BME280;20031;43.416;23.232;2023-08-30T01:46:56;99001.78;;;20.92;86.66
33697;BME280;20031;43.416;23.232;2023-08-30T01:49:23;98975.31;;;20.92;86.70
33697;BME280;20031;43.416;23.232;2023-08-30T01:51:50;98987.44;;;20.88;86.20
33697;BME280;20031;43.416;23.232;2023-08-30T01:54:18;99023.16;;;20.86;86.29
33697;BME280;20031;43.416;23.232;2023-08-30T01:56:46;99038.50;;;20.84;86.54
33697;BME280;20031;43.416;23.232;2023-08-30T01:59:12;99022.59;;;20.84;86.42
33697;BME280;20031;43.416;23.232;2023-08-30T02:01:38;99023.56;;;20.78;86.94
33697;BME280;20031;43.416;23.232;2023-08-30T02:04:03;99014.81;;;20.72;86.71
33697;BME280;20031;43.416;23.232;2023-08-30T02:09:27;98988.97;;;20.84;86.93
33697;BME280;20031;43.416;23.232;2023-08-30T02:11:55;98987.19;;;20.90;87.13
33697;BME280;20031;43.416;23.232;2023-08-30T02:14:24;99003.38;;;20.93;86.68
33697;BME280;20031;43.416;23.232;2023-08-30T02:16:51;99009.97;;;20.91;87.00
33697;BME280;20031;43.416;23.232;2023-08-30T02:19:17;98999.38;;;20.91;86.64
33697;BME280;20031;43.416;23.232;2023-08-30T02:21:46;98995.38;;;20.88;87.27
33697;BME280;20031;43.416;23.232;2023-08-30T02:24:11;98989.28;;;20.88;87.29
33697;BME280;20031;43.416;23.232;2023-08-30T02:26:36;98981.56;;;20.86;87.45
33697;BME280;20031;43.416;23.232;2023-08-30T02:29:03;98963.63;;;20.88;87.48
33697;BME280;20031;43.416;23.232;2023-08-30T02:31:28;98964.41;;;20.89;87.38
33697;BME280;20031;43.416;23.232;2023-08-30T02:33:54;98986.59;;;20.83;87.07
33697;BME280;20031;43.416;23.232;2023-08-30T02:36:19;99003.75;;;20.80;87.81
33697;BME280;20031;43.416;23.232;2023-08-30T02:38:45;98997.97;;;20.83;88.22
33697;BME280;20031;43.416;23.232;2023-08-30T02:41:10;98974.75;;;20.90;88.41
33697;BME280;20031;43.416;23.232;2023-08-30T02:43:35;98976.28;;;20.86;88.04
33697;BME280;20031;43.416;23.232;2023-08-30T02:46:01;99001.47;;;20.89;88.44
33697;BME280;20031;43.416;23.232;2023-08-30T02:48:29;99011.03;;;20.90;88.39
33697;BME280;20031;43.416;23.232;2023-08-30T02:50:54;99000.47;;;20.95;89.41
33697;BME280;20031;43.416;23.232;2023-08-30T02:53:19;98975.31;;;20.92;88.85
33697;BME280;20031;43.416;23.232;2023-08-30T02:55:46;98982.16;;;20.88;89.16
33697;BME280;20031;43.416;23.232;2023-08-30T02:58:13;98977.88;;;20.87;89.06
33697;BME280;20031;43.416;23.232;2023-08-30T03:00:38;98967.88;;;20.89;88.78
33697;BME280;20031;43.416;23.232;2023-08-30T03:03:04;98982.44;;;20.92;89.31
33697;BME280;20031;43.416;23.232;2023-08-30T03:05:29;98989.94;;;21.00;89.26
33697;BME280;20031;43.416;23.232;2023-08-30T03:07:55;98975.09;;;20.99;89.08
33697;BME280;20031;43.416;23.232;2023-08-30T03:10:20;98943.03;;;20.95;88.71
33697;BME280;20031;43.416;23.232;2023-08-30T03:12:45;98935.84;;;20.91;88.58
33697;BME280;20031;43.416;23.232;2023-08-30T03:15:11;98968.09;;;20.88;89.05
33697;BME280;20031;43.416;23.232;2023-08-30T03:17:36;98979.69;;;20.82;88.82
33697;BME280;20031;43.416;23.232;2023-08-30T03:20:02;98993.63;;;20.72;88.03
33697;BME280;20031;43.416;23.232;2023-08-30T03:22:30;98991.78;;;20.73;88.95
33697;BME280;20031;43.416;23.232;2023-08-30T03:24:55;98985.69;;;20.72;88.82
33697;BME280;20031;43.416;23.232;2023-08-30T03:27:21;98981.69;;;20.70;88.24
33697;BME280;20031;43.416;23.232;2023-08-30T03:29:46;98985.44;;;20.74;88.47
33697;BME280;20031;43.416;23.232;2023-08-30T03:32:15;98987.59;;;20.77;88.79
33697;BME280;20031;43.416;23.232;2023-08-30T03:34:44;98987.03;;;20.75;88.27
33697;BME280;20031;43.416;23.232;2023-08-30T03:37:09;98982.22;;;20.72;88.28
33697;BME280;20031;43.416;23.232;2023-08-30T03:39:35;98985.44;;;20.74;88.46
33697;BME280;20031;43.416;23.232;2023-08-30T03:42:00;98983.59;;;20.74;88.59
33697;BME280;20031;43.416;23.232;2023-08-30T03:44:26;98990.03;;;20.62;87.50
33697;BME280;20031;43.416;23.232;2023-08-30T03:46:51;98985.56;;;20.62;88.45
33697;BME280;20031;43.416;23.232;2023-08-30T03:49:16;98983.97;;;20.66;88.66
33697;BME280;20031;43.416;23.232;2023-08-30T03:51:42;98973.50;;;20.71;88.43
33697;BME280;20031;43.416;23.232;2023-08-30T03:54:07;98981.97;;;20.73;88.76
33697;BME280;20031;43.416;23.232;2023-08-30T03:56:38;98981.47;;;20.76;88.37
33697;BME280;20031;43.416;23.232;2023-08-30T03:59:04;98970.88;;;20.76;88.43
33697;BME280;20031;43.416;23.232;2023-08-30T04:01:29;98969.72;;;20.67;87.76
33697;BME280;20031;43.416;23.232;2023-08-30T04:03:54;98966.16;;;20.57;87.95
33697;BME280;20031;43.416;23.232;2023-08-30T04:06:20;98972.56;;;20.61;88.54
33697;BME280;20031;43.416;23.232;2023-08-30T04:08:46;98971.50;;;20.62;88.09
33697;BME280;20031;43.416;23.232;2023-08-30T04:11:12;98967.22;;;20.56;87.99
33697;BME280;20031;43.416;23.232;2023-08-30T04:13:37;98958.66;;;20.49;88.00
33697;BME280;20031;43.416;23.232;2023-08-30T04:16:03;98963.16;;;20.48;88.50
33697;BME280;20031;43.416;23.232;2023-08-30T04:18:29;98964.19;;;20.48;88.41
33697;BME280;20031;43.416;23.232;2023-08-30T04:20:54;98971.34;;;20.47;88.65
33697;BME280;20031;43.416;23.232;2023-08-30T04:23:20;98968.69;;;20.47;88.84
33697;BME280;20031;43.416;23.232;2023-08-30T04:25:45;98969.25;;;20.49;87.98
33697;BME280;20031;43.416;23.232;2023-08-30T04:28:10;98971.09;;;20.48;88.34
33697;BME280;20031;43.416;23.232;2023-08-30T04:30:36;98971.16;;;20.53;88.45
33697;BME280;20031;43.416;23.232;2023-08-30T04:33:03;98970.41;;;20.58;88.65
33697;BME280;20031;43.416;23.232;2023-08-30T04:35:30;98975.25;;;20.66;88.93
33697;BME280;20031;43.416;23.232;2023-08-30T04:37:55;98973.75;;;20.70;88.67
33697;BME280;20031;43.416;23.232;2023-08-30T04:40:21;98975.66;;;20.74;88.46
33697;BME280;20031;43.416;23.232;2023-08-30T04:42:46;98975.22;;;20.82;88.31
33697;BME280;20031;43.416;23.232;2023-08-30T04:45:12;98980.34;;;20.94;88.70
33697;BME280;20031;43.416;23.232;2023-08-30T04:47:37;98984.13;;;21.02;87.82
33697;BME280;20031;43.416;23.232;2023-08-30T04:50:03;98992.69;;;21.09;88.02
33697;BME280;20031;43.416;23.232;2023-08-30T04:52:29;98984.50;;;21.16;87.34
33697;BME280;20031;43.416;23.232;2023-08-30T04:54:54;98976.81;;;21.14;87.13
33697;BME280;20031;43.416;23.232;2023-08-30T04:57:19;98988.91;;;21.32;87.41
33697;BME280;20031;43.416;23.232;2023-08-30T04:59:45;98993.72;;;21.40;86.43
33697;BME280;20031;43.416;23.232;2023-08-30T05:02:12;98993.53;;;21.46;86.39
33697;BME280;20031;43.416;23.232;2023-08-30T05:04:37;98993.53;;;21.46;84.94
33697;BME280;20031;43.416;23.232;2023-08-30T05:07:03;98986.63;;;21.45;84.48
33697;BME280;20031;43.416;23.232;2023-08-30T05:09:32;98985.09;;;21.49;84.37
33697;BME280;20031;43.416;23.232;2023-08-30T05:11:59;98977.44;;;21.52;83.42
33697;BME280;20031;43.416;23.232;2023-08-30T05:14:25;98987.34;;;21.67;83.21
33697;BME280;20031;43.416;23.232;2023-08-30T05:16:50;98993.97;;;21.64;82.54
33697;BME280;20031;43.416;23.232;2023-08-30T05:19:16;98991.00;;;21.61;81.83
33697;BME280;20031;43.416;23.232;2023-08-30T05:21:44;99002.59;;;21.50;80.71
33697;BME280;20031;43.416;23.232;2023-08-30T05:24:10;98993.72;;;21.40;81.51
33697;BME280;20031;43.416;23.232;2023-08-30T05:26:36;98995.03;;;21.37;82.05
33697;BME280;20031;43.416;23.232;2023-08-30T05:29:03;99007.53;;;21.42;81.90
33697;BME280;20031;43.416;23.232;2023-08-30T05:31:28;99006.22;;;21.44;82.21
33697;BME280;20031;43.416;23.232;2023-08-30T05:33:53;99002.25;;;21.42;81.76
33697;BME280;20031;43.416;23.232;2023-08-30T05:36:19;98995.84;;;21.38;82.05
33697;BME280;20031;43.416;23.232;2023-08-30T05:38:44;98997.16;;;21.35;82.14
33697;BME280;20031;43.416;23.232;2023-08-30T05:41:10;98993.97;;;21.38;82.44
33697;BME280;20031;43.416;23.232;2023-08-30T05:43:35;98999.78;;;21.35;82.74
33697;BME280;20031;43.416;23.232;2023-08-30T05:46:01;99015.06;;;21.23;83.04
33697;BME280;20031;43.416;23.232;2023-08-30T05:48:32;99013.97;;;21.19;83.24
33697;BME280;20031;43.416;23.232;2023-08-30T05:50:58;99009.69;;;21.13;84.02
33697;BME280;20031;43.416;23.232;2023-08-30T05:53:23;99020.78;;;21.10;83.91
33697;BME280;20031;43.416;23.232;2023-08-30T05:55:49;99024.41;;;21.04;83.76
33697;BME280;20031;43.416;23.232;2023-08-30T05:58:14;99013.44;;;20.96;84.05
33697;BME280;20031;43.416;23.232;2023-08-30T06:00:41;99005.47;;;20.91;84.83
33697;BME280;20031;43.416;23.232;2023-08-30T06:03:07;99015.22;;;20.86;84.93
33697;BME280;20031;43.416;23.232;2023-08-30T12:54:28;98832.06;;;33.03;35.91
33697;BME280;20031;43.416;23.232;2023-08-30T12:56:53;98829.97;;;32.88;36.11
33697;BME280;20031;43.416;23.232;2023-08-30T12:59:19;98826.19;;;32.69;35.79
33697;BME280;20031;43.416;23.232;2023-08-30T13:01:44;98831.31;;;32.62;35.66
33697;BME280;20031;43.416;23.232;2023-08-30T13:04:09;98828.84;;;32.57;34.92
33697;BME280;20031;43.416;23.232;2023-08-30T13:06:35;98827.66;;;32.66;35.80
33697;BME280;20031;43.416;23.232;2023-08-30T13:09:01;98834.63;;;32.67;36.49
33697;BME280;20031;43.416;23.232;2023-08-30T13:11:26;98821.72;;;32.73;36.61
33697;BME280;20031;43.416;23.232;2023-08-30T13:13:53;98826.59;;;32.39;35.97
33697;BME280;20031;43.416;23.232;2023-08-30T13:16:18;98823.19;;;32.50;36.33
33697;BME280;20031;43.416;23.232;2023-08-30T13:18:44;98826.72;;;32.95;36.17
33697;BME280;20031;43.416;23.232;2023-08-30T13:21:09;98819.81;;;33.05;35.17
33697;BME280;20031;43.416;23.232;2023-08-30T13:23:35;98823.88;;;33.11;34.98
33697;BME280;20031;43.416;23.232;2023-08-30T13:26:00;98820.50;;;33.03;35.20
33697;BME280;20031;43.416;23.232;2023-08-30T13:28:25;98825.25;;;32.85;34.93
33697;BME280;20031;43.416;23.232;2023-08-30T13:30:51;98821.84;;;32.76;35.95
33697;BME280;20031;43.416;23.232;2023-08-30T13:33:16;98821.59;;;32.69;36.44
33697;BME280;20031;43.416;23.232;2023-08-30T13:35:42;98825.94;;;32.62;36.56
33697;BME280;20031;43.416;23.232;2023-08-30T13:38:07;98827.56;;;32.34;36.76
33697;BME280;20031;43.416;23.232;2023-08-30T13:40:33;98820.91;;;32.32;36.82
33697;BME280;20031;43.416;23.232;2023-08-30T13:42:58;98824.34;;;32.41;37.86
33697;BME280;20031;43.416;23.232;2023-08-30T13:45:24;98827.56;;;32.34;37.04
33697;BME280;20031;43.416;23.232;2023-08-30T13:47:49;98834.34;;;32.20;36.88
33697;BME280;20031;43.416;23.232;2023-08-30T13:50:17;98835.13;;;32.20;37.49
33697;BME280;20031;43.416;23.232;2023-08-30T13:52:42;98840.56;;;32.12;37.59
33697;BME280;20031;43.416;23.232;2023-08-30T13:55:08;98833.75;;;32.14;38.00
33697;BME280;20031;43.416;23.232;2023-08-30T13:57:33;98838.59;;;32.21;39.00
33697;BME280;20031;43.416;23.232;2023-08-30T13:59:59;98838.97;;;32.11;37.82
33697;BME280;20031;43.416;23.232;2023-08-30T14:02:25;98836.28;;;32.11;37.86
33697;BME280;20031;43.416;23.232;2023-08-30T14:04:51;98833.53;;;31.99;37.25
33697;BME280;20031;43.416;23.232;2023-08-30T14:07:16;98850.69;;;31.86;37.11
33697;BME280;20031;43.416;23.232;2023-08-30T14:09:42;98842.94;;;31.85;37.69
33697;BME280;20031;43.416;23.232;2023-08-30T14:12:07;98855.00;;;31.79;37.95
33697;BME280;20031;43.416;23.232;2023-08-30T14:14:33;98870.66;;;31.48;40.47
33697;BME280;20031;43.416;23.232;2023-08-30T14:16:58;98857.91;;;30.78;42.46
33697;BME280;20031;43.416;23.232;2023-08-30T14:19:24;98866.63;;;30.58;44.24
33697;BME280;20031;43.416;23.232;2023-08-30T14:21:50;98865.50;;;30.67;43.80
33697;BME280;20031;43.416;23.232;2023-08-30T14:24:15;98859.97;;;30.81;43.55
33697;BME280;20031;43.416;23.232;2023-08-30T14:26:41;98855.22;;;30.86;43.40
33697;BME280;20031;43.416;23.232;2023-08-30T14:29:06;98857.44;;;30.76;43.86
33697;BME280;20031;43.416;23.232;2023-08-30T14:31:31;98862.50;;;30.86;44.48
33697;BME280;20031;43.416;23.232;2023-08-30T14:33:57;98862.66;;;30.97;44.15
33697;BME280;20031;43.416;23.232;2023-08-30T14:36:23;98861.41;;;31.03;43.52
33697;BME280;20031;43.416;23.232;2023-08-30T14:38:48;98856.31;;;31.10;43.62
33697;BME280;20031;43.416;23.232;2023-08-30T14:41:14;98863.59;;;31.10;43.31
33697;BME280;20031;43.416;23.232;2023-08-30T14:43:42;98862.50;;;31.02;42.57
33697;BME280;20031;43.416;23.232;2023-08-30T14:46:08;98867.72;;;30.99;42.56
33697;BME280;20031;43.416;23.232;2023-08-30T14:48:34;98868.53;;;30.91;42.43
33697;BME280;20031;43.416;23.232;2023-08-30T14:51:00;98867.56;;;30.87;42.26
33697;BME280;20031;43.416;23.232;2023-08-30T14:53:26;98864.25;;;30.90;42.59
33697;BME280;20031;43.416;23.232;2023-08-30T14:55:52;98861.84;;;31.22;42.13
33697;BME280;20031;43.416;23.232;2023-08-30T14:58:18;98861.22;;;32.57;40.22
33697;BME280;20031;43.416;23.232;2023-08-30T15:00:44;98860.97;;;34.03;37.25
33697;BME280;20031;43.416;23.232;2023-08-30T15:03:10;98866.19;;;33.07;37.79
33697;BME280;20031;43.416;23.232;2023-08-30T15:05:35;98871.00;;;32.82;38.14
33697;BME280;20031;43.416;23.232;2023-08-30T15:08:00;98868.69;;;34.40;37.02
33697;BME280;20031;43.416;23.232;2023-08-30T15:10:26;98859.97;;;36.17;33.99
33697;BME280;20031;43.416;23.232;2023-08-30T15:12:51;98868.28;;;37.14;32.31
33697;BME280;20031;43.416;23.232;2023-08-30T15:15:17;98852.19;;;38.43;31.03
33697;BME280;20031;43.416;23.232;2023-08-30T15:17:44;98872.50;;;39.43;29.62
33697;BME280;20031;43.416;23.232;2023-08-30T15:20:10;98874.44;;;39.79;28.82
33697;BME280;20031;43.416;23.232;2023-08-30T15:22:35;98869.00;;;40.40;28.63
33697;BME280;20031;43.416;23.232;2023-08-30T15:25:01;98870.38;;;40.70;28.09
33697;BME280;20031;43.416;23.232;2023-08-30T15:27:33;98871.34;;;41.22;28.81
33697;BME280;20031;43.416;23.232;2023-08-30T15:29:58;98863.50;;;41.17;28.46
33697;BME280;20031;43.416;23.232;2023-08-30T15:32:24;98872.50;;;41.25;28.17
33697;BME280;20031;43.416;23.232;2023-08-30T15:34:49;98872.84;;;41.06;28.12
33697;BME280;20031;43.416;23.232;2023-08-30T15:37:16;98876.38;;;41.06;28.88
33697;BME280;20031;43.416;23.232;2023-08-30T15:39:41;98870.50;;;41.04;28.41
33697;BME280;20031;43.416;23.232;2023-08-30T15:42:07;98882.53;;;40.86;28.32
33697;BME280;20031;43.416;23.232;2023-08-30T15:44:33;98879.00;;;40.82;28.84
33697;BME280;20031;43.416;23.232;2023-08-30T15:46:58;98888.31;;;40.67;28.63
33697;BME280;20031;43.416;23.232;2023-08-30T15:49:24;98889.88;;;40.75;28.65
33697;BME280;20031;43.416;23.232;2023-08-30T15:51:49;98896.09;;;40.62;28.61
33697;BME280;20031;43.416;23.232;2023-08-30T15:54:15;98890.81;;;40.33;28.54
33697;BME280;20031;43.416;23.232;2023-08-30T15:56:41;98890.88;;;39.90;28.69
33697;BME280;20031;43.416;23.232;2023-08-30T15:59:08;98899.91;;;39.54;29.72
33697;BME280;20031;43.416;23.232;2023-08-30T16:01:34;98894.88;;;39.23;29.80
33697;BME280;20031;43.416;23.232;2023-08-30T16:03:59;98895.28;;;38.92;30.70
33697;BME280;20031;43.416;23.232;2023-08-30T16:06:25;98901.25;;;38.72;30.94
33697;BME280;20031;43.416;23.232;2023-08-30T16:08:50;98898.31;;;38.55;31.38
33697;BME280;20031;43.416;23.232;2023-08-30T16:11:16;98898.97;;;38.23;31.02
33697;BME280;20031;43.416;23.232;2023-08-30T16:13:41;98902.44;;;37.15;32.14
33697;BME280;20031;43.416;23.232;2023-08-30T16:16:07;98907.50;;;35.80;34.32
33697;BME280;20031;43.416;23.232;2023-08-30T16:18:32;98908.53;;;34.78;35.88
33697;BME280;20031;43.416;23.232;2023-08-30T16:20:57;98915.69;;;33.76;37.55
33697;BME280;20031;43.416;23.232;2023-08-30T16:23:23;98913.22;;;32.86;39.45
33697;BME280;20031;43.416;23.232;2023-08-30T16:25:56;98919.13;;;32.59;41.05
33697;BME280;20031;43.416;23.232;2023-08-30T16:28:21;98922.09;;;32.87;40.91
33697;BME280;20031;43.416;23.232;2023-08-30T16:30:47;98922.47;;;33.17;40.90
33697;BME280;20031;43.416;23.232;2023-08-30T16:33:12;98927.25;;;33.32;40.27
33697;BME280;20031;43.416;23.232;2023-08-30T16:35:42;98933.56;;;33.36;39.79
33697;BME280;20031;43.416;23.232;2023-08-30T16:38:08;98938.81;;;33.33;39.61
33697;BME280;20031;43.416;23.232;2023-08-30T16:40:33;98938.34;;;33.19;39.31
33697;BME280;20031;43.416;23.232;2023-08-30T16:42:58;98939.31;;;32.94;39.56
33697;BME280;20031;43.416;23.232;2023-08-30T16:45:24;98940.84;;;32.34;40.86
33697;BME280;20031;43.416;23.232;2023-08-30T16:47:49;98943.31;;;31.65;42.04
33697;BME280;20031;43.416;23.232;2023-08-30T16:50:15;98947.22;;;31.05;43.36
33697;BME280;20031;43.416;23.232;2023-08-30T16:52:41;98951.09;;;30.57;44.52
33697;BME280;20031;43.416;23.232;2023-08-30T16:55:07;98963.13;;;30.12;45.39
33697;BME280;20031;43.416;23.232;2023-08-30T16:57:32;98965.63;;;29.79;46.74
33697;BME280;20031;43.416;23.232;2023-08-30T16:59:58;98973.84;;;29.52;47.77
33697;BME280;20031;43.416;23.232;2023-08-30T17:02:23;98980.13;;;29.26;48.40
33697;BME280;20031;43.416;23.232;2023-08-30T17:04:49;98974.53;;;29.00;48.75
33697;BME280;20031;43.416;23.232;2023-08-30T17:07:14;98970.53;;;28.76;49.04
33697;BME280;20031;43.416;23.232;2023-08-30T17:09:39;98977.38;;;28.55;50.33
33697;BME280;20031;43.416;23.232;2023-08-30T17:12:05;98978.09;;;28.34;51.11
33697;BME280;20031;43.416;23.232;2023-08-30T17:14:31;98982.16;;;28.05;52.60
33697;BME280;20031;43.416;23.232;2023-08-30T17:16:57;98985.09;;;27.90;52.80
33697;BME280;20031;43.416;23.232;2023-08-30T17:19:24;98973.97;;;27.83;53.55
33697;BME280;20031;43.416;23.232;2023-08-30T17:21:50;98982.28;;;27.68;54.42
33697;BME280;20031;43.416;23.232;2023-08-30T17:24:16;98982.47;;;27.40;54.95
33697;BME280;20031;43.416;23.232;2023-08-30T17:26:41;98989.88;;;27.29;55.82
33697;BME280;20031;43.416;23.232;2023-08-30T17:29:06;98989.44;;;27.23;56.48
33697;BME280;20031;43.416;23.232;2023-08-30T17:31:33;98989.81;;;27.16;56.61
33697;BME280;20031;43.416;23.232;2023-08-30T17:33:59;98996.09;;;27.07;56.92
33697;BME280;20031;43.416;23.232;2023-08-30T17:36:24;98997.09;;;26.92;57.37
33697;BME280;20031;43.416;23.232;2023-08-30T17:38:51;98995.50;;;26.73;58.47
33697;BME280;20031;43.416;23.232;2023-08-30T17:41:17;98995.84;;;26.67;58.79
33697;BME280;20031;43.416;23.232;2023-08-30T17:43:42;98990.56;;;26.62;59.06
33697;BME280;20031;43.416;23.232;2023-08-30T17:46:08;98991.47;;;26.52;58.90
33697;BME280;20031;43.416;23.232;2023-08-30T17:48:33;99002.88;;;26.39;59.72
33697;BME280;20031;43.416;23.232;2023-08-30T17:50:59;99011.50;;;26.31;60.19
33697;BME280;20031;43.416;23.232;2023-08-30T17:53:25;99007.28;;;26.25;60.12
33697;BME280;20031;43.416;23.232;2023-08-30T17:55:58;99015.84;;;26.22;60.51
33697;BME280;20031;43.416;23.232;2023-08-30T17:58:25;99025.00;;;26.17;60.96
33697;BME280;20031;43.416;23.232;2023-08-30T18:00:54;99031.47;;;26.11;60.60
33697;BME280;20031;43.416;23.232;2023-08-30T18:03:22;99028.66;;;25.97;60.99
33697;BME280;20031;43.416;23.232;2023-08-30T18:05:48;99038.41;;;25.83;61.53
33697;BME280;20031;43.416;23.232;2023-08-30T18:08:16;99039.91;;;25.66;62.03
33697;BME280;20031;43.416;23.232;2023-08-30T18:10:42;99041.06;;;25.50;62.05
33697;BME280;20031;43.416;23.232;2023-08-30T18:13:08;99054.47;;;25.40;62.20
33697;BME280;20031;43.416;23.232;2023-08-30T18:15:37;99052.38;;;25.32;61.99
33697;BME280;20031;43.416;23.232;2023-08-30T18:18:04;99050.00;;;25.31;62.66
33697;BME280;20031;43.416;23.232;2023-08-30T18:20:30;99051.38;;;25.28;62.74
33697;BME280;20031;43.416;23.232;2023-08-30T18:22:55;99066.88;;;25.21;63.33
33697;BME280;20031;43.416;23.232;2023-08-30T18:25:20;99058.38;;;25.15;63.85
33697;BME280;20031;43.416;23.232;2023-08-30T18:27:46;99065.06;;;25.12;64.98
33697;BME280;20031;43.416;23.232;2023-08-30T18:30:12;99060.84;;;25.01;65.09
33697;BME280;20031;43.416;23.232;2023-08-30T18:32:37;99062.78;;;24.86;65.53
33697;BME280;20031;43.416;23.232;2023-08-30T18:35:03;99069.50;;;24.73;66.22
33697;BME280;20031;43.416;23.232;2023-08-30T18:37:28;99070.84;;;24.66;66.05
33697;BME280;20031;43.416;23.232;2023-08-30T18:39:54;99070.59;;;24.63;66.46
33697;BME280;20031;43.416;23.232;2023-08-30T18:42:19;99069.81;;;24.62;66.19
33697;BME280;20031;43.416;23.232;2023-08-30T18:44:45;99078.88;;;24.56;66.26
33697;BME280;20031;43.416;23.232;2023-08-30T18:47:12;99086.88;;;24.51;66.05
33697;BME280;20031;43.416;23.232;2023-08-30T18:49:42;99086.91;;;24.41;66.53
33697;BME280;20031;43.416;23.232;2023-08-30T18:52:08;99088.78;;;24.36;66.41
33697;BME280;20031;43.416;23.232;2023-08-30T18:54:33;99093.00;;;24.32;66.38
33697;BME280;20031;43.416;23.232;2023-08-30T18:56:59;99094.63;;;24.28;66.61
33697;BME280;20031;43.416;23.232;2023-08-30T18:59:24;99099.16;;;24.27;66.41
33697;BME280;20031;43.416;23.232;2023-08-30T19:01:50;99110.06;;;24.26;66.49
33697;BME280;20031;43.416;23.232;2023-08-30T19:04:15;99105.56;;;24.26;65.93
33697;BME280;20031;43.416;23.232;2023-08-30T19:06:41;99111.16;;;24.25;65.47
33697;BME280;20031;43.416;23.232;2023-08-30T19:09:07;99122.31;;;24.22;64.94
33697;BME280;20031;43.416;23.232;2023-08-30T19:11:34;99129.50;;;24.21;65.20
33697;BME280;20031;43.416;23.232;2023-08-30T19:14:00;99129.78;;;24.10;65.48
33697;BME280;20031;43.416;23.232;2023-08-30T19:16:26;99146.03;;;24.04;66.07
33697;BME280;20031;43.416;23.232;2023-08-30T19:18:51;99144.69;;;24.01;66.40
33697;BME280;20031;43.416;23.232;2023-08-30T19:21:16;99153.47;;;24.02;66.28
33697;BME280;20031;43.416;23.232;2023-08-30T19:23:45;99150.03;;;24.01;66.98
33697;BME280;20031;43.416;23.232;2023-08-30T19:26:13;99151.88;;;24.01;67.12
33697;BME280;20031;43.416;23.232;2023-08-30T19:28:38;99158.28;;;24.00;67.13
33697;BME280;20031;43.416;23.232;2023-08-30T19:31:04;99160.66;;;23.91;66.88
33697;BME280;20031;43.416;23.232;2023-08-30T19:33:29;99168.91;;;23.90;67.03
33697;BME280;20031;43.416;23.232;2023-08-30T19:35:55;99166.50;;;23.88;67.36
33697;BME280;20031;43.416;23.232;2023-08-30T19:38:20;99166.78;;;23.87;67.30
33697;BME280;20031;43.416;23.232;2023-08-30T19:40:52;99171.84;;;23.88;67.40
33697;BME280;20031;43.416;23.232;2023-08-30T19:43:18;99170.75;;;23.84;67.05